createdAt,value
2023-10-17T00:02:28.694Z,12.02
2023-10-17T00:04:55.819Z,12.47
2023-10-17T00:07:22.752Z,12.81
2023-10-17T00:09:50.460Z,12.52
2023-10-17T00:12:20.297Z,11.38
2023-10-17T00:14:56.685Z,11.95
2023-10-17T00:17:23.450Z,11.91
2023-10-17T00:19:53.090Z,11.93
2023-10-17T00:22:20.155Z,10.39
2023-10-17T00:24:48.561Z,10.95
2023-10-17T00:27:16.035Z,11.73
2023-10-17T00:29:43.109Z,11.63
2023-10-17T00:32:10.681Z,11.26
2023-10-17T00:34:38.386Z,11.50
2023-10-17T00:37:12.460Z,11.61
2023-10-17T00:39:40.313Z,11.80
2023-10-17T00:42:08.698Z,11.85
2023-10-17T00:44:37.856Z,12.19
2023-10-17T00:47:07.303Z,12.53
2023-10-17T00:49:45.448Z,12.03
2023-10-17T00:52:33.885Z,11.10
2023-10-17T00:55:02.341Z,11.28
2023-10-17T00:57:29.266Z,11.82
2023-10-17T01:00:24.914Z,12.14
2023-10-17T01:02:53.367Z,12.48
2023-10-17T01:05:22.087Z,12.69
2023-10-17T01:07:48.810Z,12.97
2023-10-17T01:10:17.633Z,12.53
2023-10-17T01:13:02.278Z,11.91
2023-10-17T01:15:29.850Z,12.24
2023-10-17T01:18:03.667Z,12.28
2023-10-17T01:20:31.010Z,11.62
2023-10-17T01:22:58.184Z,11.76
2023-10-17T01:25:31.369Z,12.16
2023-10-17T01:27:59.378Z,11.68
2023-10-17T01:30:31.207Z,12.08
2023-10-17T01:32:58.427Z,12.38
2023-10-17T01:35:25.609Z,12.43
2023-10-17T01:37:58.175Z,12.16
2023-10-17T01:40:27.180Z,11.93
2023-10-17T01:42:55.105Z,11.50
2023-10-17T01:45:24.025Z,11.36
2023-10-17T01:47:54.662Z,11.39
2023-10-17T01:50:22.423Z,11.48
2023-10-17T01:52:50.552Z,11.22
2023-10-17T01:55:17.341Z,11.71
2023-10-17T01:57:48.287Z,11.76
2023-10-17T02:00:33.785Z,11.76
2023-10-17T02:03:01.186Z,11.53
2023-10-17T02:05:28.223Z,11.36
2023-10-17T02:07:57.617Z,11.17
2023-10-17T02:10:26.410Z,11.40
2023-10-17T02:12:53.623Z,11.20
2023-10-17T02:15:20.958Z,11.38
2023-10-17T02:17:48.777Z,11.55
2023-10-17T02:20:28.351Z,12.03
2023-10-17T02:22:55.245Z,11.73
2023-10-17T02:25:23.136Z,12.25
2023-10-17T02:27:50.430Z,12.26
2023-10-17T02:30:21.810Z,12.40
2023-10-17T02:32:53.525Z,12.64
2023-10-17T02:35:24.149Z,12.46
2023-10-17T02:37:50.871Z,12.12
2023-10-17T02:40:24.479Z,11.30
2023-10-17T02:42:51.612Z,11.34
2023-10-17T02:45:26.222Z,10.86
2023-10-17T02:48:16.340Z,11.70
2023-10-17T02:50:51.071Z,11.95
2023-10-17T02:53:17.702Z,12.17
2023-10-17T02:55:44.372Z,12.23
2023-10-17T02:58:10.975Z,12.65
2023-10-17T03:00:37.832Z,12.09
2023-10-17T03:03:14.340Z,12.08
2023-10-17T03:05:45.642Z,12.35
2023-10-17T03:08:17.367Z,11.94
2023-10-17T03:10:44.573Z,11.53
2023-10-17T03:13:24.903Z,11.60
2023-10-17T03:15:58.340Z,11.60
2023-10-17T03:18:25.439Z,11.97
2023-10-17T03:20:52.442Z,12.32
2023-10-17T03:23:31.968Z,11.75
2023-10-17T03:26:06.326Z,12.14
2023-10-17T03:28:34.464Z,12.23
2023-10-17T03:31:02.359Z,12.27
2023-10-17T03:33:29.088Z,12.32
2023-10-17T03:36:02.396Z,12.19
2023-10-17T03:38:32.453Z,11.78
2023-10-17T03:41:29.457Z,11.77
2023-10-17T03:43:56.138Z,11.70
2023-10-17T03:46:37.002Z,12.07
2023-10-17T03:49:05.516Z,12.18
2023-10-17T03:51:32.810Z,11.82
2023-10-17T03:54:08.703Z,11.99
2023-10-17T03:56:47.220Z,12.11
2023-10-17T03:59:14.923Z,12.23
2023-10-17T04:01:51.447Z,12.11
2023-10-17T04:04:37.763Z,12.15
2023-10-17T04:07:07.507Z,12.41
2023-10-17T04:09:47.749Z,12.53
2023-10-17T04:12:22.257Z,12.47
2023-10-17T04:14:55.727Z,12.37
2023-10-17T04:17:28.884Z,12.01
2023-10-17T04:20:00.443Z,11.96
2023-10-17T04:22:30.778Z,12.15
2023-10-17T04:25:02.914Z,11.72
2023-10-17T04:27:36.048Z,12.04
2023-10-17T04:30:09.057Z,11.98
2023-10-17T04:32:39.697Z,12.23
2023-10-17T04:35:08.377Z,11.50
2023-10-17T04:37:38.765Z,11.81
2023-10-17T04:40:24.497Z,12.39
2023-10-17T04:43:12.113Z,12.39
2023-10-17T04:45:45.392Z,12.53
2023-10-17T04:48:13.111Z,13.08
2023-10-17T04:50:57.458Z,12.96
2023-10-17T04:53:37.029Z,12.52
2023-10-17T04:56:12.824Z,12.55
2023-10-17T04:58:49.731Z,12.73
2023-10-17T05:01:29.679Z,13.13
2023-10-17T05:03:56.963Z,13.06
2023-10-17T05:06:43.667Z,12.86
2023-10-17T05:09:10.354Z,12.56
2023-10-17T05:11:55.533Z,12.75
2023-10-17T05:14:40.856Z,12.65
2023-10-17T05:17:26.261Z,12.55
2023-10-17T05:20:11.605Z,12.77
2023-10-17T05:22:57.106Z,12.91
2023-10-17T05:25:42.479Z,12.59
2023-10-17T05:28:27.951Z,12.96
2023-10-17T05:31:13.310Z,12.49
2023-10-17T05:33:58.310Z,12.77
2023-10-17T05:36:43.913Z,13.00
2023-10-17T05:39:29.087Z,12.97
2023-10-17T05:42:14.880Z,12.61
2023-10-17T05:45:02.499Z,12.45
2023-10-17T05:47:47.873Z,12.89
2023-10-17T05:50:33.191Z,12.89
2023-10-17T05:53:18.484Z,12.91
2023-10-17T05:56:13.743Z,12.82
2023-10-17T05:58:59.397Z,13.06
2023-10-17T06:01:45.051Z,13.14
2023-10-17T06:04:30.327Z,13.33
2023-10-17T06:07:16.080Z,13.53
2023-10-17T06:10:01.730Z,13.10
2023-10-17T06:12:47.116Z,13.02
2023-10-17T06:15:32.491Z,13.49
2023-10-17T06:17:59.262Z,13.63
2023-10-17T06:20:49.016Z,13.87
2023-10-17T06:23:25.051Z,14.03
2023-10-17T06:25:52.045Z,14.40
2023-10-17T06:28:35.417Z,14.50
2023-10-17T06:31:31.169Z,14.49
2023-10-17T06:34:02.342Z,14.25
2023-10-17T06:36:29.964Z,14.55
2023-10-17T06:38:57.618Z,14.94
2023-10-17T06:41:31.556Z,15.17
2023-10-17T06:44:06.834Z,15.22
2023-10-17T06:46:52.636Z,14.53
2023-10-17T06:49:51.556Z,14.82
2023-10-17T06:52:18.223Z,14.72
2023-10-17T06:54:51.716Z,14.22
2023-10-17T06:57:21.637Z,14.26
2023-10-17T06:59:54.365Z,14.82
2023-10-17T07:02:29.644Z,14.44
2023-10-17T07:04:58.126Z,14.74
2023-10-17T07:07:25.252Z,14.63
2023-10-17T07:10:10.599Z,14.32
2023-10-17T07:12:40.076Z,14.74
2023-10-17T07:15:20.049Z,14.20
2023-10-17T07:17:55.523Z,14.09
2023-10-17T07:20:51.233Z,14.80
2023-10-17T07:23:20.657Z,14.15
2023-10-17T07:25:50.872Z,14.88
2023-10-17T07:28:17.564Z,15.17
2023-10-17T07:30:50.954Z,15.58
2023-10-17T07:33:20.592Z,15.70
2023-10-17T07:35:57.570Z,15.14
2023-10-17T07:38:29.501Z,15.67
2023-10-17T07:41:15.149Z,16.06
2023-10-17T07:43:45.667Z,14.87
2023-10-17T07:46:18.961Z,15.56
2023-10-17T07:48:50.049Z,15.52
2023-10-17T07:51:17.531Z,15.68
2023-10-17T07:53:47.556Z,16.02
2023-10-17T07:56:22.003Z,16.12
2023-10-17T07:58:58.127Z,16.42
2023-10-17T08:01:39.908Z,15.88
2023-10-17T08:04:26.233Z,15.61
2023-10-17T08:06:53.112Z,16.02
2023-10-17T08:09:39.299Z,15.97
2023-10-17T08:12:08.193Z,16.47
2023-10-17T08:14:46.275Z,16.10
2023-10-17T08:17:16.155Z,16.69
2023-10-17T08:20:12.694Z,16.09
2023-10-17T08:23:08.022Z,16.13
2023-10-17T08:25:41.636Z,16.16
2023-10-17T08:28:28.308Z,15.88
2023-10-17T08:31:02.491Z,15.84
2023-10-17T08:33:37.901Z,15.74
2023-10-17T08:36:04.948Z,15.52
2023-10-17T08:38:35.137Z,15.88
2023-10-17T08:41:08.397Z,15.61
2023-10-17T08:43:39.598Z,16.25
2023-10-17T08:46:12.478Z,16.38
2023-10-17T08:48:39.353Z,15.98
2023-10-17T08:51:18.138Z,15.92
2023-10-17T08:53:49.247Z,15.72
2023-10-17T08:56:15.877Z,15.92
2023-10-17T08:58:44.817Z,16.35
2023-10-17T09:01:19.202Z,16.30
2023-10-17T09:03:48.238Z,15.42
2023-10-17T09:06:15.449Z,15.35
2023-10-17T09:08:52.679Z,16.17
2023-10-17T09:11:35.089Z,16.72
2023-10-17T09:14:19.036Z,15.13
2023-10-17T09:17:01.910Z,15.76
2023-10-17T09:19:28.649Z,15.39
2023-10-17T09:21:55.398Z,15.27
2023-10-17T09:24:39.144Z,16.29
2023-10-17T09:27:07.778Z,16.39
2023-10-17T09:30:00.404Z,16.57
2023-10-17T09:32:38.616Z,16.79
2023-10-17T09:35:16.604Z,16.18
2023-10-17T09:37:53.404Z,16.68
2023-10-17T09:40:31.633Z,16.80
2023-10-17T09:43:00.364Z,15.74
2023-10-17T09:45:36.150Z,15.74
2023-10-17T09:48:06.703Z,15.48
2023-10-17T09:50:36.187Z,15.99
2023-10-17T09:53:15.008Z,16.22
2023-10-17T09:55:50.124Z,16.86
2023-10-17T09:58:23.625Z,16.43
2023-10-17T10:00:55.051Z,15.57
2023-10-17T10:03:25.686Z,16.51
2023-10-17T10:05:56.510Z,16.84
2023-10-17T10:08:33.993Z,17.11
2023-10-17T10:11:02.413Z,16.88
2023-10-17T10:13:29.498Z,15.47
2023-10-17T10:16:02.882Z,15.32
2023-10-17T10:18:40.951Z,16.45
2023-10-17T10:21:13.791Z,16.63
2023-10-17T10:26:15.388Z,16.95
2023-10-17T10:28:43.207Z,16.83
2023-10-17T10:31:22.067Z,17.23
2023-10-17T10:33:56.840Z,17.07
2023-10-17T10:36:24.850Z,17.60
2023-10-17T10:38:55.097Z,17.64
2023-10-17T10:41:24.002Z,17.18
2023-10-17T10:43:59.105Z,17.37
2023-10-17T10:46:26.564Z,17.68
2023-10-17T10:48:55.172Z,17.05
2023-10-17T10:51:28.176Z,17.48
2023-10-17T10:53:55.944Z,17.56
2023-10-17T10:56:24.067Z,17.44
2023-10-17T10:58:52.939Z,17.79
2023-10-17T11:01:20.296Z,17.39
2023-10-17T11:03:48.308Z,17.56
2023-10-17T11:06:20.391Z,17.46
2023-10-17T11:08:49.434Z,16.62
2023-10-17T11:11:21.177Z,16.82
2023-10-17T11:13:50.224Z,16.92
2023-10-17T11:16:19.112Z,16.97
2023-10-17T11:18:46.822Z,17.70
2023-10-17T11:21:14.958Z,17.29
2023-10-17T11:24:10.944Z,17.42
2023-10-17T11:26:41.192Z,17.93
2023-10-17T11:29:08.839Z,17.96
2023-10-17T11:31:36.046Z,16.98
2023-10-17T11:34:15.736Z,17.51
2023-10-17T11:36:50.370Z,18.03
2023-10-17T11:39:17.353Z,17.42
2023-10-17T11:41:58.577Z,17.03
2023-10-17T11:44:29.307Z,17.51
2023-10-17T11:47:07.075Z,17.32
2023-10-17T11:49:42.564Z,17.56
2023-10-17T11:52:13.764Z,16.76
2023-10-17T11:55:14.595Z,17.40
2023-10-17T11:57:42.368Z,17.40
2023-10-17T12:00:17.185Z,17.60
2023-10-17T12:02:45.181Z,17.98
2023-10-17T12:05:22.210Z,16.37
2023-10-17T12:07:51.265Z,17.47
2023-10-17T12:10:18.407Z,17.53
2023-10-17T12:12:45.767Z,17.15
2023-10-17T12:15:15.318Z,16.87
2023-10-17T12:17:42.759Z,17.21
2023-10-17T12:20:13.109Z,17.29
2023-10-17T12:22:41.158Z,16.82
2023-10-17T12:25:11.400Z,17.04
2023-10-17T12:27:41.458Z,17.19
2023-10-17T12:30:12.404Z,17.60
2023-10-17T12:32:41.302Z,16.02
2023-10-17T12:35:13.378Z,15.88
2023-10-17T12:37:44.854Z,16.38
2023-10-17T12:40:22.992Z,16.53
2023-10-17T12:42:52.776Z,16.87
2023-10-17T12:45:21.072Z,17.12
2023-10-17T12:47:48.998Z,17.14
2023-10-17T12:50:16.996Z,17.17
2023-10-17T12:52:43.906Z,16.83
2023-10-17T12:55:13.004Z,17.08
2023-10-17T12:57:41.014Z,17.02
2023-10-17T13:00:12.932Z,17.19
2023-10-17T13:02:41.276Z,17.59
2023-10-17T13:05:12.402Z,17.55
2023-10-17T13:07:40.831Z,17.76
2023-10-17T13:10:08.837Z,17.64
2023-10-17T13:12:37.066Z,17.99
2023-10-17T13:15:07.873Z,17.31
2023-10-17T13:17:34.763Z,16.66
2023-10-17T13:20:08.653Z,17.39
2023-10-17T13:22:48.676Z,16.26
2023-10-17T13:25:16.019Z,16.53
2023-10-17T13:27:43.057Z,17.34
2023-10-17T13:30:10.708Z,17.24
2023-10-17T13:32:37.557Z,17.11
2023-10-17T13:35:04.805Z,17.38
2023-10-17T13:37:31.482Z,17.17
2023-10-17T13:39:58.399Z,16.59
2023-10-17T13:42:26.502Z,16.80
2023-10-17T13:44:54.909Z,17.07
2023-10-17T13:47:22.431Z,16.95
2023-10-17T13:49:49.365Z,17.09
2023-10-17T13:52:19.100Z,16.76
2023-10-17T13:54:48.175Z,16.93
2023-10-17T13:57:17.634Z,15.92
2023-10-17T13:59:54.402Z,15.58
2023-10-17T14:02:21.546Z,16.31
2023-10-17T14:04:49.444Z,16.18
2023-10-17T14:07:16.726Z,16.84
2023-10-17T14:09:43.558Z,16.66
2023-10-17T14:12:10.486Z,16.38
2023-10-17T14:14:38.025Z,16.84
2023-10-17T14:17:05.137Z,16.44
2023-10-17T14:19:41.462Z,16.53
2023-10-17T14:22:28.055Z,17.01
2023-10-17T14:24:54.777Z,17.00
2023-10-17T14:27:30.732Z,16.79
2023-10-17T14:30:01.237Z,16.92
2023-10-17T14:32:29.627Z,16.51
2023-10-17T14:35:00.199Z,16.30
2023-10-17T14:37:28.991Z,16.09
2023-10-17T14:39:56.346Z,16.00
2023-10-17T14:42:23.533Z,15.84
2023-10-17T14:44:54.040Z,15.99
2023-10-17T14:47:21.196Z,16.23
2023-10-17T14:49:49.652Z,16.24
2023-10-17T14:52:20.367Z,16.08
2023-10-17T14:54:49.564Z,15.45
2023-10-17T14:57:18.342Z,15.16
2023-10-17T14:59:45.679Z,15.51
2023-10-17T15:02:12.406Z,15.31
2023-10-17T15:04:40.377Z,15.64
2023-10-17T15:07:07.678Z,15.96
2023-10-17T15:09:38.608Z,16.29
2023-10-17T15:12:05.623Z,16.18
2023-10-17T15:14:33.913Z,16.32
2023-10-17T15:17:01.093Z,16.41
2023-10-17T15:19:30.173Z,16.38
2023-10-17T15:21:57.584Z,16.32
2023-10-17T15:24:24.625Z,15.72
2023-10-17T15:26:52.636Z,15.99
2023-10-17T15:29:19.649Z,15.92
2023-10-17T15:31:54.255Z,15.00
2023-10-17T15:34:22.575Z,15.67
2023-10-17T15:36:49.522Z,16.15
2023-10-17T15:39:16.625Z,15.77
2023-10-17T15:41:43.375Z,16.22
2023-10-17T15:44:10.072Z,16.46
2023-10-17T15:46:37.307Z,16.32
2023-10-17T15:49:04.543Z,16.39
2023-10-17T15:51:31.439Z,16.53
2023-10-17T15:53:59.014Z,16.72
2023-10-17T15:56:31.872Z,15.99
2023-10-17T15:58:59.150Z,16.15
2023-10-17T16:01:26.077Z,16.00
2023-10-17T16:03:52.984Z,16.03
2023-10-17T16:06:19.774Z,15.98
2023-10-17T16:08:49.627Z,16.10
2023-10-17T16:11:18.761Z,16.07
2023-10-17T16:13:45.848Z,15.69
2023-10-17T16:16:12.991Z,15.92
2023-10-17T16:18:40.485Z,15.79
2023-10-17T16:21:10.576Z,14.70
2023-10-17T16:23:38.318Z,14.63
2023-10-17T16:26:06.214Z,14.41
2023-10-17T16:28:36.810Z,14.91
2023-10-17T16:31:04.920Z,14.90
2023-10-17T16:33:32.507Z,15.38
2023-10-17T16:36:02.922Z,15.43
2023-10-17T16:38:30.141Z,15.15
2023-10-17T16:40:56.927Z,15.17
2023-10-17T16:43:28.120Z,15.44
2023-10-17T16:45:57.190Z,15.56
2023-10-17T16:48:24.014Z,15.46
2023-10-17T16:50:53.126Z,15.23
2023-10-17T16:53:19.858Z,15.21
2023-10-17T16:55:49.791Z,14.99
2023-10-17T16:58:19.894Z,15.40
2023-10-17T17:00:47.266Z,14.57
2023-10-17T17:03:14.465Z,15.12
2023-10-17T17:05:41.280Z,14.63
2023-10-17T17:08:08.792Z,13.85
2023-10-17T17:10:43.474Z,13.59
2023-10-17T17:13:13.540Z,14.63
2023-10-17T17:15:46.767Z,15.12
2023-10-17T17:20:45.482Z,15.09
2023-10-17T17:23:12.297Z,15.01
2023-10-17T17:25:42.317Z,15.05
2023-10-17T17:28:11.092Z,14.64
2023-10-17T17:30:39.822Z,14.69
2023-10-17T17:33:06.724Z,14.97
2023-10-17T17:35:33.857Z,15.02
2023-10-17T17:38:00.696Z,15.36
2023-10-17T17:40:27.491Z,15.36
2023-10-17T17:42:57.525Z,15.53
2023-10-17T17:45:26.502Z,15.56
2023-10-17T17:48:13.477Z,15.23
2023-10-17T17:50:49.580Z,14.99
2023-10-17T17:53:16.419Z,15.07
2023-10-17T17:55:49.225Z,15.30
2023-10-17T17:58:19.078Z,15.50
2023-10-17T18:00:54.882Z,15.58
2023-10-17T18:03:21.812Z,14.12
2023-10-17T18:05:48.969Z,14.86
2023-10-17T18:08:17.928Z,15.14
2023-10-17T18:10:46.333Z,15.20
2023-10-17T18:13:13.771Z,14.89
2023-10-17T18:15:41.355Z,14.92
2023-10-17T18:18:08.536Z,15.10
2023-10-17T18:20:35.829Z,15.33
2023-10-17T18:23:02.847Z,15.29
2023-10-17T18:25:29.667Z,15.30
2023-10-17T18:27:56.372Z,15.23
2023-10-17T18:30:23.206Z,15.07
2023-10-17T18:32:49.943Z,15.12
2023-10-17T18:35:16.801Z,15.28
2023-10-17T18:37:43.537Z,15.40
2023-10-17T18:40:16.224Z,14.94
2023-10-17T18:42:42.952Z,14.89
2023-10-17T18:45:16.605Z,15.06
2023-10-17T18:47:43.804Z,15.13
2023-10-17T18:50:12.217Z,15.14
2023-10-17T18:52:39.173Z,15.28
2023-10-17T18:55:10.886Z,14.77
2023-10-17T18:57:42.226Z,15.10
2023-10-17T19:00:16.253Z,15.26
2023-10-17T19:02:45.772Z,15.08
2023-10-17T19:05:12.683Z,15.16
2023-10-17T19:07:42.086Z,14.87
2023-10-17T19:10:11.196Z,14.60
2023-10-17T19:12:49.797Z,14.64
2023-10-17T19:15:19.326Z,14.80
2023-10-17T19:17:46.153Z,14.82
2023-10-17T19:20:12.883Z,14.68
2023-10-17T19:22:45.823Z,14.83
2023-10-17T19:25:18.712Z,14.81
2023-10-17T19:27:52.969Z,14.05
2023-10-17T19:30:22.565Z,14.25
2023-10-17T19:32:49.275Z,14.99
2023-10-17T19:35:17.769Z,14.97
2023-10-17T19:37:44.519Z,14.93
2023-10-17T19:40:15.285Z,14.93
2023-10-17T19:42:42.491Z,14.87
2023-10-17T19:45:10.169Z,14.80
2023-10-17T19:47:36.966Z,14.73
2023-10-17T19:50:03.901Z,15.06
2023-10-17T19:52:31.275Z,15.30
2023-10-17T19:54:58.069Z,15.33
2023-10-17T19:57:24.866Z,15.29
2023-10-17T19:59:53.120Z,15.36
2023-10-17T20:02:19.906Z,15.35
2023-10-17T20:04:46.664Z,15.44
2023-10-17T20:07:13.733Z,15.48
2023-10-17T20:09:40.534Z,14.66
2023-10-17T20:12:10.107Z,14.43
2023-10-17T20:14:37.217Z,14.09
2023-10-17T20:17:04.513Z,14.21
2023-10-17T20:19:33.579Z,14.53
2023-10-17T20:22:01.355Z,14.26
2023-10-17T20:24:29.010Z,14.79
2023-10-17T20:26:55.729Z,14.58
2023-10-17T20:29:24.076Z,14.40
2023-10-17T20:31:50.951Z,14.52
2023-10-17T20:34:17.791Z,14.28
2023-10-17T20:36:45.635Z,14.68
2023-10-17T20:39:12.770Z,15.18
2023-10-17T20:44:07.474Z,15.39
2023-10-17T20:46:36.285Z,15.41
2023-10-17T20:49:03.506Z,15.19
2023-10-17T20:51:30.668Z,15.06
2023-10-17T20:53:57.359Z,14.96
2023-10-17T20:56:40.708Z,15.23
2023-10-17T20:59:10.348Z,14.20
2023-10-17T21:01:37.339Z,14.59
2023-10-17T21:04:04.454Z,14.64
2023-10-17T21:06:31.469Z,14.48
2023-10-17T21:08:58.345Z,14.91
2023-10-17T21:11:25.546Z,14.99
2023-10-17T21:13:52.243Z,14.79
2023-10-17T21:16:21.279Z,15.07
2023-10-17T21:18:49.606Z,14.52
2023-10-17T21:21:19.798Z,14.22
2023-10-17T21:23:46.548Z,14.59
2023-10-17T21:26:16.038Z,14.77
2023-10-17T21:28:42.795Z,14.91
2023-10-17T21:31:09.748Z,15.10
2023-10-17T21:33:40.290Z,15.24
2023-10-17T21:36:10.330Z,15.36
2023-10-17T21:38:39.269Z,15.40
2023-10-17T21:41:09.232Z,14.14
2023-10-17T21:43:37.238Z,14.87
2023-10-17T21:46:04.207Z,15.14
2023-10-17T21:48:31.185Z,15.48
2023-10-17T21:51:10.841Z,15.50
2023-10-17T21:53:40.298Z,15.31
2023-10-17T21:56:08.050Z,15.41
2023-10-17T21:58:41.615Z,14.65
2023-10-17T22:01:11.703Z,14.77
2023-10-17T22:03:43.051Z,15.23
2023-10-17T22:06:11.127Z,15.39
2023-10-17T22:08:41.130Z,15.38
2023-10-17T22:11:14.353Z,15.52
2023-10-17T22:13:42.763Z,15.33
2023-10-17T22:16:13.942Z,15.17
2023-10-17T22:18:45.357Z,15.21
2023-10-17T22:21:12.970Z,15.31
2023-10-17T22:23:40.478Z,15.35
2023-10-17T22:26:08.098Z,15.26
2023-10-17T22:28:36.139Z,15.16
2023-10-17T22:31:03.624Z,13.43
2023-10-17T22:33:31.239Z,14.44
2023-10-17T22:35:58.074Z,14.65
2023-10-17T22:38:25.133Z,13.91
2023-10-17T22:40:51.917Z,14.62
2023-10-17T22:43:18.701Z,14.76
2023-10-17T22:45:48.565Z,13.94
2023-10-17T22:48:15.851Z,14.56
2023-10-17T22:50:45.488Z,14.27
2023-10-17T22:53:13.609Z,14.67
2023-10-17T22:55:41.320Z,14.81
2023-10-17T22:58:08.703Z,14.82
2023-10-17T23:00:37.964Z,15.10
2023-10-17T23:03:06.946Z,14.62
2023-10-17T23:05:34.563Z,15.04
2023-10-17T23:08:02.532Z,14.79
2023-10-17T23:10:30.010Z,14.62
2023-10-17T23:12:58.403Z,14.79
2023-10-17T23:15:26.686Z,14.65
2023-10-17T23:17:53.917Z,14.80
2023-10-17T23:20:21.614Z,15.05
2023-10-17T23:22:49.963Z,15.25
2023-10-17T23:25:18.165Z,14.88
2023-10-17T23:27:46.248Z,15.15
2023-10-17T23:30:17.661Z,15.19
2023-10-17T23:32:47.737Z,15.16
2023-10-17T23:35:16.193Z,15.10
2023-10-17T23:37:46.564Z,15.09
2023-10-17T23:40:18.511Z,15.06
2023-10-17T23:42:47.445Z,15.29
2023-10-17T23:45:19.808Z,15.23
2023-10-17T23:47:50.791Z,15.22
2023-10-17T23:50:20.512Z,15.41
2023-10-17T23:52:53.270Z,15.42
2023-10-17T23:55:21.577Z,15.07
2023-10-17T23:57:51.570Z,14.89
